Time;durP1;ratioP1;P1;durP2;ratioP2;P2;SDS_P1;SDS_P2;PMS_P1;PMS_P2;Temp;Humidity;BMP_temperature;BMP_pressure;BME280_temperature;BME280_humidity;BME280_pressure;Samples;Min_cycle;Max_cycle;Signal;HPM_P1;HPM_P2
2021/05/14 00:00:07;;;;;;;;;;;;;;;21.21;45.38;100522.06;2206244;39;115618;-55
2021/05/14 00:01:39;;;;;;;;;;;;;;;21.19;45.33;100524.34;2208651;39;115557;-53
2021/05/14 00:03:11;;;;;;;;;;;;;;;21.20;45.26;100514.78;2206955;39;114549;-57
2021/05/14 00:04:42;;;;;;;;;;;;;;;21.19;45.27;100508.34;2206972;39;117664;-54
2021/05/14 00:06:15;;;;;;;;;;;;;;;21.21;45.28;100514.44;2209785;39;115975;-54
2021/05/14 00:07:48;;;;;;;;;;;;;;;21.20;45.58;100509.16;2209725;39;115473;-54
2021/05/14 00:09:19;;;;;;;;;;;;;;;21.21;45.56;100517.25;2204610;39;114043;-53
2021/05/14 00:10:51;;;;;;;;;;;;;;;21.20;45.42;100514.78;2208535;39;113847;-53
2021/05/14 00:12:23;;;;;;;;;;;;;;;21.19;45.34;100518.75;2209457;39;114084;-54
2021/05/14 00:13:58;;;;;;;;;;;;;;;21.17;45.96;100512.59;2205477;39;113893;-53
2021/05/14 00:15:30;;;;;;;;;;;;;;;21.17;45.95;100519.03;2209554;39;113958;-54
2021/05/14 00:17:02;;;;;;;;;;;;;;;21.17;45.97;100501.38;2213445;39;113995;-53
2021/05/14 00:18:34;;;;;;;;;;;;;;;21.16;45.95;100508.16;2216228;39;113871;-53
2021/05/14 00:20:06;;;;;;;;;;;;;;;21.15;45.68;100515.75;2208561;39;113896;-53
2021/05/14 00:21:38;;;;;;;;;;;;;;;21.13;45.91;100501.19;2213454;39;113853;-54
2021/05/14 00:23:11;;;;;;;;;;;;;;;21.14;45.75;100513.25;2216482;39;114018;-54
2021/05/14 00:24:44;;;;;;;;;;;;;;;21.12;45.66;100499.50;2215697;39;113803;-54
2021/05/14 00:26:16;;;;;;;;;;;;;;;21.13;45.82;100505.97;2209582;39;113841;-53
2021/05/14 00:27:47;;;;;;;;;;;;;;;21.13;45.71;100500.34;2208311;39;113839;-53
2021/05/14 00:29:19;;;;;;;;;;;;;;;21.12;46.13;100507.13;2207954;39;114057;-54
2021/05/14 00:30:51;;;;;;;;;;;;;;;21.12;45.70;100512.72;2216984;39;114360;-53
2021/05/14 00:32:22;;;;;;;;;;;;;;;21.12;46.13;100505.09;2215685;39;114869;-54
2021/05/14 00:33:54;;;;;;;;;;;;;;;21.10;46.04;100513.06;2216843;39;114708;-53
2021/05/14 00:35:26;;;;;;;;;;;;;;;21.11;45.80;100513.88;2216341;39;114851;-53
2021/05/14 00:37:01;;;;;;;;;;;;;;;21.13;46.12;100511.59;2210125;39;114778;-54
2021/05/14 00:38:33;;;;;;;;;;;;;;;21.12;46.15;100510.72;2207555;39;113992;-53
2021/05/14 00:40:05;;;;;;;;;;;;;;;21.11;46.44;100511.06;2206351;39;114808;-53
2021/05/14 00:41:37;;;;;;;;;;;;;;;21.10;46.13;100510.25;2215108;39;114937;-53
2021/05/14 00:43:09;;;;;;;;;;;;;;;21.10;46.29;100512.22;2203692;39;114129;-53
2021/05/14 00:44:45;;;;;;;;;;;;;;;21.10;46.67;100515.03;2211261;39;115354;-53
2021/05/14 00:46:17;;;;;;;;;;;;;;;21.11;46.72;100522.31;2216689;39;114938;-53
2021/05/14 00:47:49;;;;;;;;;;;;;;;21.09;46.62;100516.16;2216114;39;115163;-54
2021/05/14 00:49:21;;;;;;;;;;;;;;;21.08;47.13;100515.34;2217407;39;114318;-53
2021/05/14 00:50:52;;;;;;;;;;;;;;;21.08;47.11;100518.16;2215893;39;114759;-53
2021/05/14 00:52:25;;;;;;;;;;;;;;;21.10;46.88;100520.66;2219788;39;114976;-53
2021/05/14 00:53:56;;;;;;;;;;;;;;;21.08;47.22;100512.53;2208806;39;115222;-57
2021/05/14 00:55:28;;;;;;;;;;;;;;;21.08;47.22;100515.34;2214170;39;115672;-53
2021/05/14 00:57:00;;;;;;;;;;;;;;;21.08;47.31;100520.97;2208424;39;115127;-53
2021/05/14 00:58:31;;;;;;;;;;;;;;;21.09;47.18;100522.63;2211660;39;115814;-54
2021/05/14 01:00:04;;;;;;;;;;;;;;;21.07;47.51;100516.50;2215445;39;115896;-53
2021/05/14 01:01:36;;;;;;;;;;;;;;;21.08;47.19;100520.97;2216395;39;116136;-54
2021/05/14 01:03:14;;;;;;;;;;;;;;;21.09;47.76;100521.78;2210599;39;115379;-54
2021/05/14 01:04:46;;;;;;;;;;;;;;;21.09;47.75;100513.34;2208245;39;115952;-53
2021/05/14 01:06:18;;;;;;;;;;;;;;;21.09;47.73;100521.78;2207692;39;114625;-53
2021/05/14 01:07:50;;;;;;;;;;;;;;;21.09;47.51;100521.78;2208506;39;115051;-53
2021/05/14 01:09:22;;;;;;;;;;;;;;;21.08;47.73;100514.50;2209260;39;115644;-54
2021/05/14 01:10:54;;;;;;;;;;;;;;;21.07;47.65;100518.50;2210613;39;118255;-53
2021/05/14 01:12:25;;;;;;;;;;;;;;;21.08;47.89;100517.31;2214826;39;114587;-54
2021/05/14 01:13:57;;;;;;;;;;;;;;;21.08;48.12;100528.56;2218965;39;115631;-53
2021/05/14 01:15:29;;;;;;;;;;;;;;;21.07;48.07;100527.75;2213115;39;113738;-53
2021/05/14 01:17:01;;;;;;;;;;;;;;;21.06;48.36;100523.28;2216041;39;113768;-54
2021/05/14 01:18:33;;;;;;;;;;;;;;;21.06;48.35;100523.28;2216484;39;113764;-54
2021/05/14 01:20:06;;;;;;;;;;;;;;;21.08;47.76;100520.97;2213501;39;114532;-54
2021/05/14 01:21:38;;;;;;;;;;;;;;;21.08;48.51;100520.13;2214825;39;113777;-53
2021/05/14 01:23:10;;;;;;;;;;;;;;;21.07;48.28;100524.09;2217505;39;114025;-53
2021/05/14 01:24:42;;;;;;;;;;;;;;;21.07;48.19;100526.91;2217143;39;113654;-53
2021/05/14 01:26:15;;;;;;;;;;;;;;;21.07;48.45;100524.94;2217323;39;113756;-54
2021/05/14 01:27:47;;;;;;;;;;;;;;;21.06;48.50;100526.09;2210044;39;113958;-52
2021/05/14 01:29:20;;;;;;;;;;;;;;;21.06;48.18;100528.06;2199893;39;114788;-53
2021/05/14 01:30:54;;;;;;;;;;;;;;;21.05;48.00;100530.03;2213874;39;114265;-55
2021/05/14 01:32:25;;;;;;;;;;;;;;;21.05;47.92;100529.19;2196250;39;114111;-53
2021/05/14 01:33:57;;;;;;;;;;;;;;;21.06;48.05;100528.06;2207046;39;114333;-53
2021/05/14 01:35:29;;;;;;;;;;;;;;;21.06;48.28;100530.88;2216157;39;113970;-54
2021/05/14 01:37:01;;;;;;;;;;;;;;;21.05;47.75;100529.19;2216782;39;115164;-54
2021/05/14 01:38:33;;;;;;;;;;;;;;;21.05;47.98;100524.41;2216930;39;114668;-54
2021/05/14 01:40:06;;;;;;;;;;;;;;;21.04;47.77;100528.38;2210926;39;113947;-55
2021/05/14 01:41:38;;;;;;;;;;;;;;;21.03;47.77;100523.91;2213546;39;114769;-53
2021/05/14 01:43:10;;;;;;;;;;;;;;;21.04;48.12;100522.75;2208490;39;114760;-54
2021/05/14 01:44:41;;;;;;;;;;;;;;;21.04;48.27;100524.72;2213705;39;113848;-53
2021/05/14 01:46:13;;;;;;;;;;;;;;;21.03;48.42;100517.47;2214754;39;114779;-55
2021/05/14 01:47:46;;;;;;;;;;;;;;;21.02;47.85;100516.66;2209646;39;114934;-53
2021/05/14 01:49:18;;;;;;;;;;;;;;;21.04;48.06;100527.53;2205939;39;115231;-52
2021/05/14 01:50:50;;;;;;;;;;;;;;;21.04;47.94;100525.56;2204973;39;114901;-53
2021/05/14 01:52:21;;;;;;;;;;;;;;;21.04;48.46;100524.72;2209004;39;114367;-53
2021/05/14 01:53:53;;;;;;;;;;;;;;;21.03;48.00;100537.13;2212369;39;114727;-52
2021/05/14 01:55:25;;;;;;;;;;;;;;;21.01;48.09;100529.03;2216703;39;114279;-53
2021/05/14 01:56:58;;;;;;;;;;;;;;;21.01;47.97;100525.38;2212647;39;114473;-54
2021/05/14 01:58:30;;;;;;;;;;;;;;;21.03;47.88;100520.28;2215625;39;114701;-55
2021/05/14 02:00:04;;;;;;;;;;;;;;;21.02;48.18;100522.25;2210159;39;115508;-53
2021/05/14 02:01:35;;;;;;;;;;;;;;;21.00;48.52;100529.34;2206567;39;114822;-53
2021/05/14 02:03:07;;;;;;;;;;;;;;;21.00;48.07;100524.56;2209954;39;115376;-53
2021/05/14 02:04:39;;;;;;;;;;;;;;;21.00;47.89;100534.97;2216883;39;116001;-53
2021/05/14 02:06:11;;;;;;;;;;;;;;;21.00;48.18;100529.34;2217839;39;116396;-54
2021/05/14 02:07:43;;;;;;;;;;;;;;;20.99;48.33;100528.50;2206103;39;116168;-53
2021/05/14 02:09:15;;;;;;;;;;;;;;;21.00;48.31;100532.97;2214003;39;115511;-53
2021/05/14 02:10:47;;;;;;;;;;;;;;;20.98;48.41;100531.66;2217059;39;115708;-53
2021/05/14 02:12:19;;;;;;;;;;;;;;;20.98;48.02;100534.47;2209255;39;115355;-53
2021/05/14 02:13:52;;;;;;;;;;;;;;;20.97;48.55;100532.81;2214826;39;115629;-53
2021/05/14 02:15:24;;;;;;;;;;;;;;;20.98;47.95;100534.47;2209186;39;115535;-54
2021/05/14 02:16:56;;;;;;;;;;;;;;;20.96;48.20;100540.41;2209833;39;115534;-53
2021/05/14 02:18:28;;;;;;;;;;;;;;;20.96;48.17;100539.56;2211020;39;115623;-53
2021/05/14 02:20:00;;;;;;;;;;;;;;;20.96;48.48;100536.75;2212288;39;115448;-53
2021/05/14 02:21:32;;;;;;;;;;;;;;;20.96;48.46;100539.56;2215850;39;114009;-53
2021/05/14 02:23:04;;;;;;;;;;;;;;;20.96;48.60;100540.41;2216969;39;113779;-54
2021/05/14 02:24:35;;;;;;;;;;;;;;;20.96;48.27;100533.94;2216201;39;114390;-52
2021/05/14 02:26:07;;;;;;;;;;;;;;;20.96;48.43;100542.38;2217164;39;117274;-52
2021/05/14 02:27:39;;;;;;;;;;;;;;;20.93;48.80;100546.66;2216654;39;113687;-53
2021/05/14 02:29:11;;;;;;;;;;;;;;;20.94;48.45;100553.91;2210418;39;113695;-54
2021/05/14 02:30:43;;;;;;;;;;;;;;;20.92;48.59;100546.97;2214928;39;113774;-53
2021/05/14 02:32:15;;;;;;;;;;;;;;;20.92;48.53;100545.00;2209077;39;115227;-53
2021/05/14 02:33:47;;;;;;;;;;;;;;;20.93;48.67;100540.22;2215217;39;113882;-53
2021/05/14 02:35:19;;;;;;;;;;;;;;;20.92;48.37;100544.16;2211849;39;113650;-53
2021/05/14 02:36:51;;;;;;;;;;;;;;;20.92;48.79;100546.97;2209804;39;113910;-53
2021/05/14 02:38:23;;;;;;;;;;;;;;;20.92;48.81;100544.16;2214793;39;114022;-53
2021/05/14 02:39:55;;;;;;;;;;;;;;;20.89;49.26;100545.66;2216941;39;113819;-53
2021/05/14 02:41:26;;;;;;;;;;;;;;;20.90;48.88;100546.44;2218032;39;113689;-53
2021/05/14 02:42:58;;;;;;;;;;;;;;;20.88;48.94;100546.78;2208069;39;115379;-53
2021/05/14 02:44:30;;;;;;;;;;;;;;;20.88;49.33;100554.38;2211587;39;115367;-53
2021/05/14 02:46:02;;;;;;;;;;;;;;;20.90;49.10;100549.25;2216909;39;114850;-53
2021/05/14 02:47:34;;;;;;;;;;;;;;;20.88;49.46;100548.78;2215753;39;114919;-53
2021/05/14 02:49:06;;;;;;;;;;;;;;;20.88;49.22;100549.59;2217282;39;114776;-54
2021/05/14 02:50:38;;;;;;;;;;;;;;;20.88;48.87;100548.78;2210344;39;113783;-53
2021/05/14 02:52:10;;;;;;;;;;;;;;;20.89;49.00;100553.25;2214520;39;114838;-54
2021/05/14 02:53:41;;;;;;;;;;;;;;;20.89;49.31;100553.25;2213517;39;113841;-54
2021/05/14 02:55:13;;;;;;;;;;;;;;;20.86;49.19;100547.09;2216026;39;115044;-54
2021/05/14 02:56:45;;;;;;;;;;;;;;;20.86;49.32;100557.50;2214482;39;114745;-54
2021/05/14 02:58:17;;;;;;;;;;;;;;;20.85;49.15;100559.47;2212914;39;114796;-53
2021/05/14 02:59:49;;;;;;;;;;;;;;;20.84;48.89;100563.47;2214730;39;114194;-55
2021/05/14 03:01:21;;;;;;;;;;;;;;;20.85;49.33;100556.66;2212416;39;114805;-53
2021/05/14 03:02:53;;;;;;;;;;;;;;;20.84;49.33;100566.28;2217335;39;114837;-54
2021/05/14 03:04:26;;;;;;;;;;;;;;;20.83;48.99;100564.59;2205518;39;115668;-52
2021/05/14 03:05:57;;;;;;;;;;;;;;;20.85;48.54;100567.06;2212497;39;114603;-53
2021/05/14 03:07:29;;;;;;;;;;;;;;;20.87;48.81;100567.59;2213312;39;115527;-53
2021/05/14 03:09:01;;;;;;;;;;;;;;;20.84;49.29;100557.00;2212637;39;115675;-53
2021/05/14 03:10:34;;;;;;;;;;;;;;;20.84;49.07;100565.44;2215136;39;115446;-53
2021/05/14 03:12:06;;;;;;;;;;;;;;;20.85;48.66;100562.28;2207496;39;115716;-52
2021/05/14 03:13:38;;;;;;;;;;;;;;;20.84;48.88;100571.88;2214438;39;116236;-54
2021/05/14 03:15:10;;;;;;;;;;;;;;;20.85;48.72;100572.69;2203876;39;115955;-53
2021/05/14 03:16:42;;;;;;;;;;;;;;;20.84;48.51;100571.06;2206170;39;115618;-52
2021/05/14 03:18:14;;;;;;;;;;;;;;;20.81;48.92;100568.88;2214383;39;115455;-54
2021/05/14 03:19:46;;;;;;;;;;;;;;;20.80;48.85;100568.03;2214619;39;114594;-54
2021/05/14 03:21:18;;;;;;;;;;;;;;;20.80;48.89;100573.66;2208426;39;115191;-54
2021/05/14 03:22:50;;;;;;;;;;;;;;;20.82;48.68;100570.53;2213421;39;115564;-53
2021/05/14 03:24:22;;;;;;;;;;;;;;;20.82;48.98;100568.56;2207307;39;115526;-54
2021/05/14 03:25:54;;;;;;;;;;;;;;;20.81;48.90;100571.66;2206028;39;114162;-53
2021/05/14 03:27:27;;;;;;;;;;;;;;;20.81;49.03;100569.69;2203790;39;114054;-54
2021/05/14 03:28:58;;;;;;;;;;;;;;;20.81;48.98;100566.06;2207829;39;113726;-53
2021/05/14 03:30:30;;;;;;;;;;;;;;;20.81;48.90;100571.66;2210021;39;113964;-54
2021/05/14 03:32:03;;;;;;;;;;;;;;;20.78;48.95;100573.16;2210495;39;113782;-53
2021/05/14 03:33:35;;;;;;;;;;;;;;;20.78;48.55;100566.69;2216820;39;113796;-54
2021/05/14 03:35:08;;;;;;;;;;;;;;;20.77;48.67;100573.47;2217728;39;113608;-53
2021/05/14 03:36:40;;;;;;;;;;;;;;;20.78;48.48;100570.34;2217885;39;113887;-53
2021/05/14 03:38:11;;;;;;;;;;;;;;;20.77;48.84;100571.50;2209954;39;113763;-53
2021/05/14 03:39:45;;;;;;;;;;;;;;;20.76;48.84;100572.63;2202711;39;114735;-54
2021/05/14 03:41:31;;;;;;;;;;;;;;;20.75;48.79;100573.81;2213519;39;113783;-53
2021/05/14 03:43:04;;;;;;;;;;;;;;;20.75;48.95;100572.97;2209647;39;113979;-54
2021/05/14 03:44:36;;;;;;;;;;;;;;;20.73;48.88;100581.69;2208293;39;114031;-54
2021/05/14 03:46:07;;;;;;;;;;;;;;;20.74;48.89;100577.75;2214586;39;113869;-53
2021/05/14 03:47:40;;;;;;;;;;;;;;;20.74;48.93;100577.75;2213242;39;113758;-54
2021/05/14 03:49:11;;;;;;;;;;;;;;;20.75;48.66;100578.59;2215984;39;115012;-54
2021/05/14 03:50:44;;;;;;;;;;;;;;;20.74;49.16;100591.78;2217510;39;114863;-54
2021/05/14 03:52:15;;;;;;;;;;;;;;;20.73;48.78;100573.28;2210986;39;114921;-54
2021/05/14 03:53:47;;;;;;;;;;;;;;;20.73;48.94;100586.47;2211953;39;115096;-53
2021/05/14 03:55:19;;;;;;;;;;;;;;;20.73;48.75;100586.47;2213749;39;114761;-53
2021/05/14 03:56:54;;;;;;;;;;;;;;;20.72;48.77;100582.84;2208457;39;114862;-54
2021/05/14 03:58:26;;;;;;;;;;;;;;;20.73;48.64;100580.88;2211779;39;114761;-54
2021/05/14 03:59:58;;;;;;;;;;;;;;;20.72;48.80;100588.47;2214181;39;114076;-53
2021/05/14 04:01:30;;;;;;;;;;;;;;;20.72;48.72;100582.00;2211972;39;115338;-54
2021/05/14 04:03:02;;;;;;;;;;;;;;;20.72;48.61;100591.25;2217641;39;114691;-53
2021/05/14 04:04:34;;;;;;;;;;;;;;;20.70;49.04;100587.13;2205182;39;114812;-53
2021/05/14 04:06:06;;;;;;;;;;;;;;;20.68;48.62;100593.06;2208544;39;115439;-53
2021/05/14 04:07:38;;;;;;;;;;;;;;;20.70;49.11;100590.78;2210410;39;114785;-53
2021/05/14 04:09:10;;;;;;;;;;;;;;;20.68;48.67;100590.25;2207332;39;115314;-54
2021/05/14 04:11:01;;;;;;;;;;;;;;;20.68;48.85;100595.03;2213149;39;115555;-54
2021/05/14 04:15:50;;;;;;;;;;;;;;;20.69;48.68;100591.91;2207974;39;114730;-53
2021/05/14 04:17:22;;;;;;;;;;;;;;;20.67;48.96;100590.59;2214975;39;114626;-53
2021/05/14 04:18:53;;;;;;;;;;;;;;;20.66;48.99;100592.56;2217925;39;116062;-54
2021/05/14 04:20:25;;;;;;;;;;;;;;;20.66;48.78;100595.38;2210212;39;115418;-54
2021/05/14 04:21:58;;;;;;;;;;;;;;;20.66;49.02;100597.34;2210505;39;115544;-54
2021/05/14 04:23:30;;;;;;;;;;;;;;;20.66;49.08;100598.16;2208561;39;114676;-54
2021/05/14 04:25:02;;;;;;;;;;;;;;;20.65;49.00;100601.28;2209990;39;115772;-54
2021/05/14 04:26:34;;;;;;;;;;;;;;;20.65;49.05;100606.91;2217434;39;115804;-53
2021/05/14 04:28:06;;;;;;;;;;;;;;;20.66;48.82;100602.94;2214460;39;116119;-54
2021/05/14 04:29:38;;;;;;;;;;;;;;;20.63;49.04;100604.41;2206736;39;115506;-53
2021/05/14 04:31:10;;;;;;;;;;;;;;;20.64;48.94;100600.44;2204370;39;115400;-53
2021/05/14 04:32:43;;;;;;;;;;;;;;;20.63;49.02;100600.75;2211607;39;113777;-53
2021/05/14 04:34:16;;;;;;;;;;;;;;;20.64;49.33;100608.88;2217418;39;114375;-54
2021/05/14 04:35:49;;;;;;;;;;;;;;;20.62;48.21;100602.75;2210773;39;114444;-53
2021/05/14 04:37:20;;;;;;;;;;;;;;;20.64;47.29;100611.69;2208099;39;113941;-53
2021/05/14 04:38:53;;;;;;;;;;;;;;;20.64;48.24;100606.06;2208237;39;113800;-53
2021/05/14 04:40:25;;;;;;;;;;;;;;;20.63;48.53;100614.78;2209827;39;114071;-53
2021/05/14 04:41:58;;;;;;;;;;;;;;;20.64;48.76;100611.69;2208467;39;114265;-53
2021/05/14 04:43:31;;;;;;;;;;;;;;;20.63;48.42;100610.00;2215205;39;113869;-53
2021/05/14 04:45:03;;;;;;;;;;;;;;;20.60;48.66;100616.28;2210418;39;115503;-53
2021/05/14 04:46:35;;;;;;;;;;;;;;;20.60;48.76;100604.22;2214743;39;113931;-53
2021/05/14 04:48:10;;;;;;;;;;;;;;;20.60;48.68;100613.47;2215820;39;113642;-53
2021/05/14 04:49:42;;;;;;;;;;;;;;;20.60;48.81;100612.63;2214186;39;113897;-56
2021/05/14 04:51:14;;;;;;;;;;;;;;;20.60;48.40;100610.66;2210477;39;113740;-53
2021/05/14 04:52:46;;;;;;;;;;;;;;;20.59;48.53;100609.00;2205000;39;113615;-54
2021/05/14 04:54:19;;;;;;;;;;;;;;;20.58;48.64;100609.34;2207979;39;115424;-53
2021/05/14 04:55:50;;;;;;;;;;;;;;;20.57;48.86;100605.69;2217691;39;115466;-53
2021/05/14 04:57:23;;;;;;;;;;;;;;;20.56;48.31;100612.44;2216446;39;114815;-54
2021/05/14 04:58:55;;;;;;;;;;;;;;;20.57;48.40;100614.09;2212313;39;115809;-53
2021/05/14 05:00:27;;;;;;;;;;;;;;;20.56;48.56;100617.22;2216332;39;115203;-54
2021/05/14 05:01:59;;;;;;;;;;;;;;;20.56;48.86;100620.03;2216972;39;115064;-52
2021/05/14 05:03:32;;;;;;;;;;;;;;;20.55;48.94;100622.00;2217628;39;115040;-53
2021/05/14 05:05:05;;;;;;;;;;;;;;;20.54;48.52;100623.16;2209034;39;114775;-54
2021/05/14 05:06:37;;;;;;;;;;;;;;;20.54;48.64;100611.09;2206817;39;114795;-54
2021/05/14 05:08:09;;;;;;;;;;;;;;;20.54;49.02;100614.72;2214769;39;114785;-53
2021/05/14 05:09:41;;;;;;;;;;;;;;;20.52;48.22;100622.66;2209854;39;114758;-54
2021/05/14 05:11:13;;;;;;;;;;;;;;;20.39;45.43;100615.94;2215213;39;114853;-54
2021/05/14 05:12:45;;;;;;;;;;;;;;;20.25;44.76;100626.31;2210130;39;114679;-54
2021/05/14 05:14:17;;;;;;;;;;;;;;;20.18;44.52;100627.88;2218089;39;114745;-54
2021/05/14 05:15:49;;;;;;;;;;;;;;;20.19;45.24;100621.13;2215764;39;115483;-52
2021/05/14 05:17:21;;;;;;;;;;;;;;;20.25;46.97;100629.13;2216541;39;115993;-53
2021/05/14 05:18:53;;;;;;;;;;;;;;;20.33;47.31;100630.38;2214554;39;114499;-53
2021/05/14 05:20:25;;;;;;;;;;;;;;;20.37;47.35;100631.41;2214769;39;115559;-53
2021/05/14 05:21:57;;;;;;;;;;;;;;;20.45;47.33;100635.44;2209247;39;115411;-53
2021/05/14 05:23:29;;;;;;;;;;;;;;;20.51;47.45;100635.00;2210412;39;115670;-53
2021/05/14 05:25:02;;;;;;;;;;;;;;;20.56;47.80;100637.69;2214515;39;115328;-52
2021/05/14 05:26:33;;;;;;;;;;;;;;;20.61;48.24;100634.78;2208922;39;115594;-53
2021/05/14 05:28:05;;;;;;;;;;;;;;;20.65;48.28;100643.41;2210348;39;114857;-53
2021/05/14 05:29:40;;;;;;;;;;;;;;;20.70;48.14;100635.69;2215527;39;114560;-53
2021/05/14 05:31:13;;;;;;;;;;;;;;;20.73;48.27;100634.22;2210853;39;115416;-53
2021/05/14 05:32:45;;;;;;;;;;;;;;;20.76;48.70;100634.41;2210144;39;116254;-54
2021/05/14 05:34:17;;;;;;;;;;;;;;;20.79;48.93;100632.94;2212211;39;114727;-55
2021/05/14 05:35:49;;;;;;;;;;;;;;;20.85;48.83;100640.06;2208111;39;115800;-53
2021/05/14 05:37:22;;;;;;;;;;;;;;;20.89;49.07;100641.13;2211001;39;115615;-53
2021/05/14 05:38:54;;;;;;;;;;;;;;;20.92;48.74;100637.69;2209680;39;114794;-53
2021/05/14 05:40:26;;;;;;;;;;;;;;;20.98;48.97;100647.66;2217052;39;113766;-53
2021/05/14 05:41:58;;;;;;;;;;;;;;;21.02;48.96;100648.66;2215837;39;113758;-54
2021/05/14 05:43:30;;;;;;;;;;;;;;;21.07;48.57;100650.50;2212575;39;113687;-53
2021/05/14 05:45:03;;;;;;;;;;;;;;;21.11;48.48;100645.91;2215171;39;113672;-53
2021/05/14 05:46:34;;;;;;;;;;;;;;;21.16;48.07;100652.28;2216938;39;114563;-53
2021/05/14 05:48:08;;;;;;;;;;;;;;;21.21;48.01;100651.31;2203519;39;114078;-53
2021/05/14 05:49:40;;;;;;;;;;;;;;;21.26;47.94;100659.59;2210894;39;113771;-53
2021/05/14 05:51:13;;;;;;;;;;;;;;;21.30;47.65;100664.25;2216628;39;113604;-53
2021/05/14 05:52:45;;;;;;;;;;;;;;;21.35;47.91;100654.84;2209777;39;113696;-53
2021/05/14 05:54:17;;;;;;;;;;;;;;;21.41;47.46;100667.63;2208342;39;114068;-54
2021/05/14 05:55:49;;;;;;;;;;;;;;;21.45;47.49;100662.19;2215232;39;113687;-53
2021/05/14 05:57:21;;;;;;;;;;;;;;;21.50;47.57;100665.69;2209671;39;113829;-54
2021/05/14 05:58:53;;;;;;;;;;;;;;;21.54;47.19;100674.31;2217506;39;114013;-54
2021/05/14 06:00:25;;;;;;;;;;;;;;;21.59;47.18;100665.75;2217113;39;114804;-54
2021/05/14 06:01:57;;;;;;;;;;;;;;;21.63;47.30;100666.75;2216528;39;115200;-53
2021/05/14 06:03:30;;;;;;;;;;;;;;;21.68;47.27;100666.63;2215515;39;115018;-55
2021/05/14 06:05:02;;;;;;;;;;;;;;;21.72;47.07;100670.44;2214339;39;114812;-53
2021/05/14 06:06:34;;;;;;;;;;;;;;;21.75;46.77;100672.63;2204700;39;115114;-53
2021/05/14 06:08:07;;;;;;;;;;;;;;;21.80;46.71;100671.66;2214827;39;114736;-53
2021/05/14 06:09:39;;;;;;;;;;;;;;;21.84;46.54;100667.88;2216008;39;115273;-53
2021/05/14 06:11:11;;;;;;;;;;;;;;;21.88;46.52;100676.47;2216823;39;113963;-53
2021/05/14 06:12:42;;;;;;;;;;;;;;;21.92;46.55;100681.13;2204280;39;114621;-54
2021/05/14 06:14:14;;;;;;;;;;;;;;;21.96;46.23;100675.72;2212459;39;114865;-53
2021/05/14 06:15:46;;;;;;;;;;;;;;;22.00;46.08;100682.34;2214262;39;113905;-53
2021/05/14 06:17:18;;;;;;;;;;;;;;;22.03;46.03;100690.97;2216113;39;115185;-54
2021/05/14 06:18:57;;;;;;;;;;;;;;;22.07;45.72;100686.38;2209378;39;115302;-53
2021/05/14 06:20:31;;;;;;;;;;;;;;;22.11;46.01;100689.34;2208573;39;114824;-53
2021/05/14 06:22:03;;;;;;;;;;;;;;;22.15;45.77;100696.00;2215774;39;116590;-53
2021/05/14 06:23:35;;;;;;;;;;;;;;;22.16;45.80;100698.50;2216224;39;115541;-53
2021/05/14 06:25:07;;;;;;;;;;;;;;;22.22;45.90;100699.16;2212661;39;115905;-53
2021/05/14 06:26:40;;;;;;;;;;;;;;;22.26;45.64;100702.16;2214252;39;115709;-53
2021/05/14 06:28:17;;;;;;;;;;;;;;;22.28;45.68;100699.84;2211503;39;115493;-53
2021/05/14 06:29:48;;;;;;;;;;;;;;;22.31;45.46;100704.78;2210139;39;115494;-54
2021/05/14 06:31:20;;;;;;;;;;;;;;;22.36;46.26;100710.28;2208433;39;115603;-53
2021/05/14 06:32:52;;;;;;;;;;;;;;;22.37;45.90;100709.97;2203936;39;115479;-54
2021/05/14 06:34:24;;;;;;;;;;;;;;;22.41;46.08;100710.97;2211333;39;114907;-53
2021/05/14 06:36:00;;;;;;;;;;;;;;;22.42;45.39;100723.06;2216558;39;115553;-53
2021/05/14 06:37:35;;;;;;;;;;;;;;;22.43;45.23;100717.13;2213533;39;115572;-53
2021/05/14 06:39:08;;;;;;;;;;;;;;;22.46;45.35;100715.63;2213744;39;115613;-53
2021/05/14 06:40:40;;;;;;;;;;;;;;;22.46;45.28;100710.81;2210069;39;114845;-53
2021/05/14 06:42:11;;;;;;;;;;;;;;;22.48;45.31;100716.97;2215766;39;115860;-54
2021/05/14 06:43:43;;;;;;;;;;;;;;;22.49;45.25;100717.75;2216335;39;113965;-53
2021/05/14 06:45:16;;;;;;;;;;;;;;;22.50;45.08;100717.44;2216544;39;113565;-54
2021/05/14 06:46:47;;;;;;;;;;;;;;;22.50;45.09;100717.44;2205466;39;114508;-53
2021/05/14 06:48:19;;;;;;;;;;;;;;;22.53;45.31;100713.97;2211940;39;113674;-53
2021/05/14 06:49:51;;;;;;;;;;;;;;;22.53;45.48;100725.22;2200393;39;113686;-54
2021/05/14 06:51:23;;;;;;;;;;;;;;;22.56;45.51;100732.22;2205939;39;113900;-54
2021/05/14 06:53:01;;;;;;;;;;;;;;;22.56;45.38;100733.03;2210393;39;113812;-53
2021/05/14 06:54:33;;;;;;;;;;;;;;;22.56;45.37;100732.22;2216628;39;113888;-53
2021/05/14 06:56:05;;;;;;;;;;;;;;;22.57;45.76;100731.91;2217479;39;113551;-53
2021/05/14 06:57:37;;;;;;;;;;;;;;;22.57;45.57;100734.72;2216627;39;113830;-54
2021/05/14 06:59:09;;;;;;;;;;;;;;;22.58;45.41;100732.69;2216706;39;114336;-53
2021/05/14 07:00:41;;;;;;;;;;;;;;;22.59;45.49;100734.38;2212129;39;114737;-53
2021/05/14 07:02:13;;;;;;;;;;;;;;;22.59;45.76;100734.38;2211482;39;113629;-53
2021/05/14 07:03:45;;;;;;;;;;;;;;;22.58;45.89;100727.91;2208783;39;115042;-53
2021/05/14 07:05:17;;;;;;;;;;;;;;;22.58;46.06;100722.25;2217927;39;113579;-53
2021/05/14 07:06:49;;;;;;;;;;;;;;;22.59;46.10;100726.75;2217274;39;114762;-53
2021/05/14 07:08:20;;;;;;;;;;;;;;;22.58;46.07;100730.72;2216619;39;114931;-54
2021/05/14 07:09:52;;;;;;;;;;;;;;;22.59;45.78;100732.38;2218124;39;114835;-53
2021/05/14 07:11:24;;;;;;;;;;;;;;;22.59;45.92;100728.72;2218096;39;114813;-54
2021/05/14 07:12:56;;;;;;;;;;;;;;;22.59;46.04;100734.38;2216897;39;113776;-53
2021/05/14 07:14:28;;;;;;;;;;;;;;;22.59;46.12;100740.00;2208505;39;114252;-54
2021/05/14 07:16:00;;;;;;;;;;;;;;;22.59;46.03;100735.19;2215543;39;114004;-54
2021/05/14 07:17:32;;;;;;;;;;;;;;;22.58;46.07;100733.53;2217485;39;114796;-53
2021/05/14 07:19:04;;;;;;;;;;;;;;;22.58;45.99;100727.91;2210239;39;114458;-53
2021/05/14 07:20:36;;;;;;;;;;;;;;;22.59;46.07;100738.00;2215531;39;115151;-55
2021/05/14 07:22:09;;;;;;;;;;;;;;;22.59;46.21;100745.63;2217319;39;113816;-53
2021/05/14 07:23:41;;;;;;;;;;;;;;;22.59;46.33;100740.81;2217143;39;114711;-54
2021/05/14 07:25:13;;;;;;;;;;;;;;;22.58;46.30;100730.72;2217594;39;114134;-53
2021/05/14 07:26:45;;;;;;;;;;;;;;;22.58;46.23;100747.59;2213275;39;114809;-53
2021/05/14 07:28:17;;;;;;;;;;;;;;;22.58;46.22;100746.78;2208544;39;115583;-53
2021/05/14 07:29:49;;;;;;;;;;;;;;;22.57;46.00;100745.97;2215472;39;115529;-53
2021/05/14 07:31:24;;;;;;;;;;;;;;;22.57;46.31;100745.97;2211005;39;116177;-53
2021/05/14 07:32:57;;;;;;;;;;;;;;;22.56;46.05;100747.13;2205156;39;115920;-53
2021/05/14 07:34:29;;;;;;;;;;;;;;;22.56;46.24;100743.47;2212515;39;116070;-53
2021/05/14 07:36:08;;;;;;;;;;;;;;;22.56;46.03;100740.66;2214272;39;116094;-53
2021/05/14 07:37:40;;;;;;;;;;;;;;;22.54;46.10;100748.59;2204348;39;116676;-53
2021/05/14 07:39:12;;;;;;;;;;;;;;;22.53;46.00;100742.13;2211790;39;115473;-54
2021/05/14 07:40:44;;;;;;;;;;;;;;;22.51;46.16;100747.28;2217078;39;115741;-54
2021/05/14 07:42:16;;;;;;;;;;;;;;;22.52;46.11;100750.91;2216342;39;115313;-54
2021/05/14 07:43:48;;;;;;;;;;;;;;;22.51;46.49;100747.28;2214008;39;115447;-53
2021/05/14 07:45:20;;;;;;;;;;;;;;;22.52;46.31;100751.75;2215909;39;115546;-53
2021/05/14 07:47:06;;;;;;;;;;;;;;;22.51;46.27;100752.91;2212552;39;116464;-53
2021/05/14 07:48:38;;;;;;;;;;;;;;;22.53;46.36;100758.22;2211105;39;115572;-53
2021/05/14 07:50:10;;;;;;;;;;;;;;;22.51;46.92;100754.88;2207358;39;114354;-54
2021/05/14 07:51:42;;;;;;;;;;;;;;;22.48;46.28;100749.91;2215236;39;113602;-53